createdAt,value
2023-03-02T00:03:01.701Z,0.54
2023-03-02T00:08:05.274Z,0.34
2023-03-02T00:13:06.850Z,0.56
2023-03-02T00:18:08.459Z,0.50
2023-03-02T00:23:11.562Z,0.47
2023-03-02T00:28:13.117Z,0.31
2023-03-02T00:33:14.932Z,0.10
2023-03-02T00:38:17.809Z,0.31
2023-03-02T00:43:19.392Z,0.30
2023-03-02T00:48:20.908Z,0.52
2023-03-02T00:53:23.794Z,0.53
2023-03-02T00:58:25.977Z,0.10
2023-03-02T01:03:27.526Z,0.33
2023-03-02T01:08:30.884Z,0.07
2023-03-02T01:13:32.438Z,0.11
2023-03-02T01:18:34.791Z,0.11
2023-03-02T01:23:37.698Z,-0.01
2023-03-02T01:28:39.203Z,0.04
2023-03-02T01:33:40.757Z,0.05
2023-03-02T01:38:43.945Z,0.01
2023-03-02T01:43:45.473Z,0.02
2023-03-02T01:48:50.356Z,0.23
2023-03-02T01:53:56.389Z,0.35
2023-03-02T01:59:00.816Z,0.14
2023-03-02T02:04:02.584Z,0.38
2023-03-02T02:09:07.805Z,0.34
2023-03-02T02:14:09.878Z,0.41
2023-03-02T02:19:23.692Z,-0.04
2023-03-02T02:24:33.361Z,-0.01
2023-03-02T02:29:41.325Z,-0.24
2023-03-02T02:34:47.900Z,-0.07
2023-03-02T02:39:50.316Z,-0.10
2023-03-02T02:44:56.230Z,0.02
2023-03-02T02:49:58.707Z,0.27
2023-03-02T02:55:00.286Z,0.39
2023-03-02T03:00:03.493Z,0.42
2023-03-02T03:05:05.818Z,0.60
2023-03-02T03:10:14.042Z,0.45
2023-03-02T03:15:17.238Z,0.61
2023-03-02T03:20:20.093Z,0.50
2023-03-02T03:25:25.406Z,0.35
2023-03-02T03:30:28.372Z,0.11
2023-03-02T03:35:29.956Z,0.46
2023-03-02T03:40:31.947Z,0.41
2023-03-02T03:45:34.951Z,0.54
2023-03-02T03:50:36.654Z,0.38
2023-03-02T03:55:38.182Z,0.21
2023-03-02T04:00:41.052Z,0.59
2023-03-02T04:05:42.732Z,0.47
2023-03-02T04:10:44.868Z,0.51
2023-03-02T04:15:47.800Z,0.62
2023-03-02T04:20:49.268Z,0.61
2023-03-02T04:25:50.782Z,0.37
2023-03-02T04:30:53.774Z,0.65
2023-03-02T04:35:55.336Z,0.41
2023-03-02T04:40:57.574Z,0.41
2023-03-02T04:46:00.447Z,0.45
2023-03-02T04:51:02.000Z,0.48
2023-03-02T04:56:04.021Z,0.22
2023-03-02T05:01:06.932Z,0.15
2023-03-02T05:06:08.910Z,0.20
2023-03-02T05:11:12.460Z,0.36
2023-03-02T05:16:15.607Z,0.35
2023-03-02T05:21:18.317Z,0.63
2023-03-02T05:26:19.898Z,0.23
2023-03-02T05:31:27.475Z,0.37
2023-03-02T05:36:28.934Z,0.39
2023-03-02T05:41:30.577Z,0.34
2023-03-02T05:46:33.876Z,0.20
2023-03-02T05:51:35.595Z,0.72
2023-03-02T05:56:37.090Z,0.54
2023-03-02T06:01:40.034Z,0.35
2023-03-02T06:06:41.531Z,-0.17
2023-03-02T06:11:43.035Z,0.18
2023-03-02T06:16:45.969Z,0.28
2023-03-02T06:21:47.522Z,0.42
2023-03-02T06:26:49.056Z,0.32
2023-03-02T06:31:52.174Z,0.11
2023-03-02T06:36:53.837Z,0.25
2023-03-02T06:41:55.438Z,0.03
2023-03-02T06:46:58.370Z,0.47
2023-03-02T06:51:59.886Z,0.40
2023-03-02T06:57:01.454Z,0.25
2023-03-02T07:02:04.411Z,0.45
2023-03-02T07:07:05.913Z,0.36
2023-03-02T07:12:07.584Z,0.09
2023-03-02T07:17:10.569Z,0.06
2023-03-02T07:22:12.165Z,0.33
2023-03-02T07:27:13.748Z,0.45
2023-03-02T07:32:16.724Z,0.57
2023-03-02T07:37:18.208Z,0.35
2023-03-02T07:42:19.969Z,0.06
2023-03-02T07:47:22.940Z,-0.01
2023-03-02T07:52:24.620Z,0.32
2023-03-02T07:57:26.186Z,0.40
2023-03-02T08:02:29.093Z,0.69
2023-03-02T08:07:30.707Z,0.91
2023-03-02T08:12:32.373Z,0.38
2023-03-02T08:17:35.226Z,0.69
2023-03-02T08:22:36.668Z,0.75
2023-03-02T08:27:38.190Z,0.52
2023-03-02T08:32:41.212Z,0.93
2023-03-02T08:37:42.862Z,0.76
2023-03-02T08:42:44.405Z,1.03
2023-03-02T08:47:47.290Z,1.19
2023-03-02T08:52:48.852Z,1.37
2023-03-02T08:57:50.440Z,1.48
2023-03-02T09:02:53.334Z,1.76
2023-03-02T09:07:55.886Z,1.97
2023-03-02T09:12:57.368Z,1.82
2023-03-02T09:18:00.398Z,2.18
2023-03-02T09:23:01.943Z,1.91
2023-03-02T09:28:03.548Z,2.04
2023-03-02T09:33:06.474Z,2.04
2023-03-02T09:38:08.066Z,2.59
2023-03-02T09:43:22.879Z,2.43
2023-03-02T09:48:38.399Z,2.04
2023-03-02T09:53:47.209Z,2.17
2023-03-02T09:58:55.726Z,2.36
2023-03-02T10:04:08.080Z,2.33
2023-03-02T10:09:10.556Z,2.87
2023-03-02T10:14:17.878Z,3.20
2023-03-02T10:19:25.047Z,3.38
2023-03-02T10:24:35.020Z,3.06
2023-03-02T10:29:47.281Z,3.24
2023-03-02T10:34:52.326Z,3.37
2023-03-02T10:39:54.422Z,3.31
2023-03-02T10:45:00.656Z,3.78
2023-03-02T10:50:03.631Z,3.74
2023-03-02T10:55:12.503Z,3.95
2023-03-02T11:00:18.092Z,4.08
2023-03-02T11:05:32.819Z,3.72
2023-03-02T11:10:36.282Z,4.03
2023-03-02T11:15:45.720Z,4.27
2023-03-02T11:20:52.671Z,4.41
2023-03-02T11:25:57.676Z,4.61
2023-03-02T11:31:02.434Z,4.25
2023-03-02T11:36:12.409Z,4.33
2023-03-02T11:41:24.530Z,4.74
2023-03-02T11:46:28.300Z,4.93
2023-03-02T11:51:35.513Z,5.01
2023-03-02T11:56:39.495Z,5.63
2023-03-02T12:01:42.318Z,5.73
2023-03-02T12:06:45.523Z,4.93
2023-03-02T12:11:55.099Z,5.72
2023-03-02T12:17:17.531Z,5.27
2023-03-02T12:22:30.038Z,5.68
2023-03-02T12:27:36.471Z,6.10
2023-03-02T12:32:38.298Z,5.72
2023-03-02T12:37:47.057Z,5.42
2023-03-02T12:43:12.421Z,5.58
2023-03-02T12:48:26.412Z,5.13
2023-03-02T12:53:29.796Z,5.50
2023-03-02T12:58:31.318Z,5.80
2023-03-02T13:03:33.069Z,6.18
2023-03-02T13:08:36.234Z,6.23
2023-03-02T13:13:40.824Z,5.88
2023-03-02T13:18:42.556Z,6.05
2023-03-02T13:23:47.712Z,5.79
2023-03-02T13:28:59.737Z,6.19
2023-03-02T13:34:01.607Z,5.92
2023-03-02T13:39:07.566Z,5.63
2023-03-02T13:44:18.553Z,5.67
2023-03-02T13:49:28.364Z,5.77
2023-03-02T13:54:34.169Z,5.57
2023-03-02T13:59:35.791Z,5.39
2023-03-02T14:04:37.350Z,5.27
2023-03-02T14:09:40.272Z,5.04
2023-03-02T14:14:43.289Z,5.34
2023-03-02T14:19:45.970Z,5.24
2023-03-02T14:24:49.183Z,5.25
2023-03-02T14:29:50.798Z,5.23
2023-03-02T14:34:52.451Z,5.66
2023-03-02T14:39:55.832Z,5.57
2023-03-02T14:44:58.520Z,5.69
2023-03-02T14:50:01.271Z,5.92
2023-03-02T14:55:07.733Z,5.82
2023-03-02T15:00:14.257Z,5.85
2023-03-02T15:05:15.966Z,6.22
2023-03-02T15:10:21.237Z,5.89
2023-03-02T15:15:22.726Z,5.75
2023-03-02T15:20:24.292Z,6.10
2023-03-02T15:25:27.777Z,6.36
2023-03-02T15:30:29.381Z,6.16
2023-03-02T15:35:31.025Z,6.17
2023-03-02T15:40:35.327Z,6.05
2023-03-02T15:45:37.009Z,6.04
2023-03-02T15:50:38.623Z,6.22
2023-03-02T15:55:41.704Z,5.73
2023-03-02T16:00:43.464Z,5.81
2023-03-02T16:05:45.301Z,5.80
2023-03-02T16:10:56.867Z,5.81
2023-03-02T16:16:00.803Z,5.97
2023-03-02T16:21:02.282Z,5.39
2023-03-02T16:26:09.458Z,5.29
2023-03-02T16:31:13.129Z,5.05
2023-03-02T16:36:14.738Z,5.03
2023-03-02T16:41:19.554Z,4.52
2023-03-02T16:46:22.176Z,4.81
2023-03-02T16:51:23.742Z,4.37
2023-03-02T16:56:26.641Z,4.36
2023-03-02T17:01:28.556Z,4.14
2023-03-02T17:06:30.169Z,4.13
2023-03-02T17:11:33.076Z,4.05
2023-03-02T17:16:34.698Z,3.87
2023-03-02T17:21:36.257Z,3.57
2023-03-02T17:26:39.131Z,3.72
2023-03-02T17:31:40.745Z,3.26
2023-03-02T17:36:42.373Z,3.40
2023-03-02T17:41:45.250Z,3.29
2023-03-02T17:46:46.845Z,3.20
2023-03-02T17:51:48.407Z,2.99
2023-03-02T17:56:51.557Z,2.45
2023-03-02T18:01:53.080Z,2.78
2023-03-02T18:06:54.634Z,2.65
2023-03-02T18:11:57.530Z,2.68
2023-03-02T18:16:59.306Z,2.28
2023-03-02T18:22:01.160Z,2.43
2023-03-02T18:27:04.147Z,2.58
2023-03-02T18:32:05.935Z,2.64
2023-03-02T18:37:07.859Z,2.33
2023-03-02T18:42:12.750Z,2.43
2023-03-02T18:47:16.526Z,2.39
2023-03-02T18:52:18.733Z,2.44
2023-03-02T18:57:21.608Z,2.03
2023-03-02T19:02:23.265Z,2.35
2023-03-02T19:07:24.983Z,2.43
2023-03-02T19:12:27.926Z,2.31
2023-03-02T19:17:29.498Z,2.25
2023-03-02T19:22:31.082Z,2.15
2023-03-02T19:27:34.193Z,2.13
2023-03-02T19:32:37.422Z,2.15
2023-03-02T19:37:38.983Z,2.17
2023-03-02T19:42:41.818Z,2.32
2023-03-02T19:47:43.443Z,2.37
2023-03-02T19:52:45.041Z,2.28
2023-03-02T19:57:48.376Z,2.13
2023-03-02T20:02:49.924Z,2.18
2023-03-02T20:07:52.007Z,2.16
2023-03-02T20:12:55.027Z,2.15
2023-03-02T20:17:57.478Z,2.06
2023-03-02T20:22:59.373Z,1.83
2023-03-02T20:28:03.762Z,1.93
2023-03-02T20:33:06.826Z,1.81
2023-03-02T20:38:10.932Z,1.67
2023-03-02T20:43:14.132Z,1.57
2023-03-02T20:48:15.808Z,1.52
2023-03-02T20:53:18.125Z,1.61
2023-03-02T20:58:21.103Z,1.51
2023-03-02T21:03:22.780Z,1.60
2023-03-02T21:08:24.696Z,1.59
2023-03-02T21:13:27.579Z,1.47
2023-03-02T21:18:29.194Z,1.59
2023-03-02T21:23:30.788Z,1.70
2023-03-02T21:28:33.597Z,1.66
2023-03-02T21:33:35.226Z,1.61
2023-03-02T21:38:36.750Z,1.67
2023-03-02T21:43:39.674Z,1.71
2023-03-02T21:48:41.484Z,1.62
2023-03-02T21:53:43.000Z,1.61
2023-03-02T21:58:46.610Z,1.62
2023-03-02T22:03:48.295Z,1.48
2023-03-02T22:08:50.507Z,1.76
2023-03-02T22:13:55.411Z,1.49
2023-03-02T22:18:58.495Z,1.85
2023-03-02T22:24:20.514Z,2.02
2023-03-02T22:29:25.522Z,1.98
2023-03-02T22:34:30.592Z,1.97
2023-03-02T22:39:33.457Z,1.91
2023-03-02T22:44:36.415Z,1.84
2023-03-02T22:49:37.859Z,1.81
2023-03-02T22:54:39.468Z,1.92
2023-03-02T22:59:42.351Z,1.84
2023-03-02T23:04:48.104Z,2.06
2023-03-02T23:09:49.675Z,2.00
2023-03-02T23:14:54.652Z,1.90
2023-03-02T23:19:56.273Z,1.83
2023-03-02T23:24:57.801Z,2.05
2023-03-02T23:30:00.741Z,2.13
2023-03-02T23:35:02.275Z,1.97
2023-03-02T23:40:04.559Z,1.95
2023-03-02T23:45:09.289Z,1.91
2023-03-02T23:50:12.615Z,1.99
2023-03-02T23:55:14.150Z,2.03
